Time;durP1;ratioP1;P1;durP2;ratioP2;P2;SDS_P1;SDS_P2;PMS_P1;PMS_P2;Temp;Humidity;BMP_temperature;BMP_pressure;BME280_temperature;BME280_humidity;BME280_pressure;Samples;Min_cycle;Max_cycle;Signal;HPM_P1;HPM_P2
2023/02/04 00:01:04;;;;;;;56.53;6.00;;;7.90;99.90;;;;;;5121872;27;20173;-78
2023/02/04 00:03:30;;;;;;;52.15;5.88;;;7.90;99.90;;;;;;5133153;27;20632;-78
2023/02/04 00:05:55;;;;;;;56.35;6.78;;;7.90;99.90;;;;;;5133130;27;20756;-75
2023/02/04 00:08:21;;;;;;;52.30;7.55;;;8.00;99.90;;;;;;5114175;27;20659;-84
2023/02/04 00:10:47;;;;;;;50.95;6.32;;;7.90;99.90;;;;;;5123096;27;20222;-76
2023/02/04 00:13:13;;;;;;;43.95;6.22;;;8.00;99.90;;;;;;5125222;27;20586;-75
2023/02/04 00:15:38;;;;;;;50.22;6.25;;;8.00;99.90;;;;;;5125596;27;20185;-75
2023/02/04 00:18:06;;;;;;;36.25;5.72;;;7.90;99.90;;;;;;5121821;27;20191;-78
2023/02/04 00:20:32;;;;;;;47.05;6.75;;;8.00;99.90;;;;;;5113192;27;20185;-76
2023/02/04 00:22:58;;;;;;;40.67;5.75;;;8.00;99.90;;;;;;5130075;27;20228;-79
2023/02/04 00:25:24;;;;;;;50.67;5.80;;;8.00;99.90;;;;;;5119251;27;20330;-76
2023/02/04 00:27:49;;;;;;;57.13;5.90;;;8.00;99.90;;;;;;5107973;27;20172;-76
2023/02/04 00:30:15;;;;;;;48.25;5.95;;;8.00;99.90;;;;;;5107460;27;20970;-76
2023/02/04 00:32:41;;;;;;;55.92;6.53;;;7.90;99.90;;;;;;5110192;27;20199;-77
2023/02/04 00:35:07;;;;;;;48.22;5.80;;;7.90;99.90;;;;;;5122296;27;20585;-77
2023/02/04 00:37:33;;;;;;;50.92;6.38;;;7.90;99.90;;;;;;5127709;27;20281;-77
2023/02/04 00:39:59;;;;;;;60.17;6.57;;;7.90;99.90;;;;;;5118181;27;20268;-78
2023/02/04 00:42:25;;;;;;;47.33;5.70;;;7.90;99.90;;;;;;5103782;27;20709;-77
2023/02/04 00:44:50;;;;;;;45.80;5.75;;;7.90;99.90;;;;;;5114070;27;20651;-77
2023/02/04 00:47:16;;;;;;;53.08;5.88;;;7.90;99.90;;;;;;5112018;28;20682;-77
2023/02/04 00:49:42;;;;;;;50.63;6.53;;;7.90;99.90;;;;;;5125937;27;20563;-77
2023/02/04 00:52:07;;;;;;;50.78;5.68;;;7.90;99.90;;;;;;5125492;27;20194;-77
2023/02/04 00:54:33;;;;;;;45.72;5.85;;;7.90;99.90;;;;;;5110704;28;20213;-77
2023/02/04 00:57:00;;;;;;;49.50;6.53;;;7.90;99.90;;;;;;5097877;28;20685;-77
2023/02/04 00:59:26;;;;;;;44.30;5.80;;;7.90;99.90;;;;;;5115047;28;20269;-77
2023/02/04 01:01:51;;;;;;;51.00;7.13;;;7.90;99.90;;;;;;5132465;28;20176;-77
2023/02/04 01:04:17;;;;;;;50.10;5.97;;;7.90;99.90;;;;;;5123102;28;20214;-82
2023/02/04 01:06:43;;;;;;;55.08;6.53;;;7.90;99.90;;;;;;5122556;28;20208;-77
2023/02/04 01:09:10;;;;;;;52.83;6.10;;;7.90;99.90;;;;;;5120916;28;20184;-78
2023/02/04 01:11:36;;;;;;;57.55;6.40;;;7.90;99.90;;;;;;5127874;28;20207;-77
2023/02/04 01:14:02;;;;;;;44.85;6.47;;;7.90;99.90;;;;;;5133346;28;20645;-79
2023/02/04 01:16:28;;;;;;;53.00;5.90;;;7.90;99.90;;;;;;5131806;27;20192;-76
2023/02/04 01:18:54;;;;;;;53.53;6.25;;;7.90;99.90;;;;;;5123495;27;20268;-75
2023/02/04 01:21:22;;;;;;;45.85;5.43;;;7.90;99.90;;;;;;5125350;28;20292;-75
2023/02/04 01:23:49;;;;;;;55.63;6.78;;;7.90;99.90;;;;;;5114147;28;20191;-76
2023/02/04 01:26:16;;;;;;;52.17;6.32;;;7.90;99.90;;;;;;5132134;28;20208;-76
2023/02/04 01:28:41;;;;;;;48.55;6.32;;;7.90;99.90;;;;;;5125925;28;20258;-76
2023/02/04 01:31:07;;;;;;;50.42;6.78;;;7.90;99.90;;;;;;5119930;28;20624;-83
2023/02/04 01:33:33;;;;;;;53.38;6.30;;;8.00;99.90;;;;;;5119960;28;20177;-77
2023/02/04 01:35:59;;;;;;;55.03;6.22;;;8.00;99.90;;;;;;5118080;28;20245;-77
2023/02/04 01:38:24;;;;;;;57.15;6.18;;;7.90;99.90;;;;;;5129591;28;20204;-76
2023/02/04 01:40:51;;;;;;;56.50;6.40;;;8.00;99.90;;;;;;5124853;27;20268;-79
2023/02/04 01:43:17;;;;;;;46.38;5.90;;;7.90;99.90;;;;;;5122352;27;20196;-78
2023/02/04 01:45:44;;;;;;;52.50;6.38;;;7.90;99.90;;;;;;5104893;27;20221;-74
2023/02/04 01:48:11;;;;;;;55.17;7.03;;;8.00;99.90;;;;;;5121147;27;20172;-75
2023/02/04 01:50:37;;;;;;;59.03;6.40;;;8.00;99.90;;;;;;5116987;27;20660;-77
2023/02/04 01:53:03;;;;;;;45.53;5.53;;;7.90;99.90;;;;;;5128488;27;20180;-78
2023/02/04 01:55:32;;;;;;;52.85;6.18;;;7.90;99.90;;;;;;5125871;27;20219;-76
2023/02/04 01:57:59;;;;;;;60.20;6.88;;;7.90;99.90;;;;;;5115932;27;20264;-78
2023/02/04 02:00:28;;;;;;;50.28;6.10;;;7.90;99.90;;;;;;5129639;27;20212;-77
2023/02/04 02:02:55;;;;;;;55.92;6.20;;;7.90;99.90;;;;;;5116162;27;20184;-83
2023/02/04 02:05:29;;;;;;;60.55;6.47;;;7.90;99.90;;;;;;5134033;27;20212;-75
2023/02/04 02:07:59;;;;;;;44.60;5.57;;;7.90;99.90;;;;;;5133657;27;20172;-77
2023/02/04 02:10:25;;;;;;;54.83;6.35;;;8.00;99.90;;;;;;5126303;27;20181;-78
2023/02/04 02:12:53;;;;;;;52.55;6.47;;;7.90;99.90;;;;;;5117925;27;20189;-76
2023/02/04 02:15:19;;;;;;;63.50;6.78;;;7.90;99.90;;;;;;5114337;27;20263;-77
2023/02/04 02:17:45;;;;;;;53.95;6.65;;;7.90;99.90;;;;;;5129903;27;20577;-76
2023/02/04 02:20:14;;;;;;;64.38;6.88;;;7.90;99.90;;;;;;5123752;27;21316;-76
2023/02/04 02:22:50;;;;;;;57.80;6.82;;;8.00;99.90;;;;;;5125576;27;20228;-76
2023/02/04 02:25:16;;;;;;;52.70;6.38;;;7.90;99.90;;;;;;5126015;27;20209;-78
2023/02/04 02:27:42;;;;;;;62.65;6.60;;;7.90;99.90;;;;;;5108440;27;20257;-77
2023/02/04 02:30:10;;;;;;;50.95;6.07;;;7.90;99.90;;;;;;5120864;27;20203;-76
2023/02/04 02:32:37;;;;;;;51.40;6.50;;;7.90;99.90;;;;;;5127714;27;20220;-76
2023/02/04 02:35:04;;;;;;;46.90;5.97;;;7.90;99.90;;;;;;5129416;27;20224;-76
2023/02/04 02:37:30;;;;;;;58.28;6.75;;;7.90;99.90;;;;;;5133868;27;20184;-76
2023/02/04 02:39:56;;;;;;;56.90;6.68;;;7.90;99.90;;;;;;5131217;27;20185;-81
2023/02/04 02:42:22;;;;;;;62.95;7.00;;;7.90;99.90;;;;;;5123106;27;20647;-77
2023/02/04 02:44:49;;;;;;;50.08;6.28;;;7.90;99.90;;;;;;5131075;27;20180;-77
2023/02/04 02:47:18;;;;;;;53.92;6.53;;;7.90;99.90;;;;;;5118358;27;20192;-76
2023/02/04 02:49:46;;;;;;;56.85;6.60;;;7.90;99.90;;;;;;5133636;27;20180;-77
2023/02/04 02:52:12;;;;;;;65.25;7.10;;;7.90;99.90;;;;;;5131609;27;20228;-77
2023/02/04 02:54:40;;;;;;;60.33;6.72;;;7.80;99.90;;;;;;5131906;27;20185;-77
2023/02/04 02:57:24;;;;;;;55.95;6.47;;;7.80;99.90;;;;;;5110021;27;20168;-77
2023/02/04 02:59:50;;;;;;;56.00;6.38;;;7.80;99.90;;;;;;5120072;27;20534;-78
2023/02/04 03:02:20;;;;;;;60.22;6.82;;;7.80;99.90;;;;;;5113539;27;20276;-77
2023/02/04 03:04:53;;;;;;;50.85;6.35;;;7.80;99.90;;;;;;5128991;27;20177;-76
2023/02/04 03:07:23;;;;;;;64.43;6.70;;;7.80;99.90;;;;;;5137733;27;20177;-77
2023/02/04 03:09:50;;;;;;;58.00;6.90;;;7.80;99.90;;;;;;5114468;27;20560;-77
2023/02/04 03:12:15;;;;;;;57.85;6.80;;;7.70;99.90;;;;;;5117074;27;20177;-77
2023/02/04 03:14:41;;;;;;;54.95;6.55;;;7.70;99.90;;;;;;5128699;27;20192;-77
2023/02/04 03:17:09;;;;;;;54.22;6.35;;;7.70;99.90;;;;;;5124804;27;20296;-84
2023/02/04 03:19:36;;;;;;;56.55;6.55;;;7.70;99.90;;;;;;5139146;27;20222;-77
2023/02/04 03:22:04;;;;;;;57.47;6.05;;;7.70;99.90;;;;;;5117102;27;20648;-77
2023/02/04 03:24:30;;;;;;;58.28;6.25;;;7.70;99.90;;;;;;5127847;27;20291;-77
2023/02/04 03:26:56;;;;;;;53.65;5.95;;;7.80;99.90;;;;;;5128980;27;20513;-77
2023/02/04 03:29:22;;;;;;;56.50;5.25;;;7.70;99.90;;;;;;5122648;27;20218;-78
2023/02/04 03:31:48;;;;;;;50.70;6.35;;;7.70;99.90;;;;;;5127280;27;20555;-77
2023/02/04 03:34:14;;;;;;;46.22;5.30;;;7.70;99.90;;;;;;5126553;27;20180;-77
2023/02/04 03:36:40;;;;;;;39.72;5.03;;;7.70;99.90;;;;;;5121863;27;20188;-80
2023/02/04 03:39:05;;;;;;;39.15;5.68;;;7.70;99.90;;;;;;5118964;27;20235;-77
2023/02/04 03:41:31;;;;;;;43.20;4.82;;;7.70;99.90;;;;;;5117125;27;20181;-77
2023/02/04 03:43:57;;;;;;;41.63;5.20;;;7.70;99.90;;;;;;5099962;27;20181;-77
2023/02/04 03:46:24;;;;;;;39.15;5.63;;;7.60;99.90;;;;;;5114361;27;20201;-77
2023/02/04 03:48:50;;;;;;;55.08;6.00;;;7.60;99.90;;;;;;5125954;27;20268;-77
2023/02/04 03:51:16;;;;;;;34.90;4.53;;;7.60;99.90;;;;;;5131930;27;20267;-77
2023/02/04 03:53:41;;;;;;;42.10;4.63;;;7.60;99.90;;;;;;5113235;27;20185;-76
2023/02/04 03:56:07;;;;;;;40.08;5.60;;;7.60;99.90;;;;;;5114965;27;20196;-78
2023/02/04 03:58:33;;;;;;;35.30;4.80;;;7.50;99.90;;;;;;5127375;27;20636;-78
2023/02/04 04:00:58;;;;;;;31.83;4.25;;;7.60;99.90;;;;;;5121530;27;20497;-79
2023/02/04 04:03:24;;;;;;;29.77;4.40;;;7.50;99.90;;;;;;5117015;27;20183;-76
2023/02/04 04:05:50;;;;;;;35.45;4.80;;;7.50;99.90;;;;;;5132578;27;20212;-78
2023/02/04 04:08:15;;;;;;;34.47;4.47;;;7.50;99.90;;;;;;5117790;27;20285;-78
2023/02/04 04:10:41;;;;;;;35.92;4.40;;;7.50;99.90;;;;;;5120772;27;20188;-77
2023/02/04 04:13:07;;;;;;;31.20;4.57;;;7.50;99.90;;;;;;5114705;27;20184;-77
2023/02/04 04:15:32;;;;;;;36.25;4.10;;;7.50;99.90;;;;;;5124952;27;20184;-77
2023/02/04 04:17:58;;;;;;;38.38;4.13;;;7.50;99.90;;;;;;5125912;27;20196;-78
2023/02/04 04:20:26;;;;;;;38.15;4.38;;;7.50;99.90;;;;;;5129682;27;20287;-77
2023/02/04 04:22:51;;;;;;;31.48;4.78;;;7.50;99.90;;;;;;5119590;27;20216;-77
2023/02/04 04:25:17;;;;;;;43.13;5.22;;;7.50;99.90;;;;;;5114268;27;20664;-77
2023/02/04 04:27:43;;;;;;;42.45;4.20;;;7.50;99.90;;;;;;5113391;27;20184;-77
2023/02/04 04:30:09;;;;;;;30.85;4.30;;;7.50;99.90;;;;;;5119378;27;20189;-77
2023/02/04 04:32:35;;;;;;;37.08;4.38;;;7.50;99.90;;;;;;5132486;27;20180;-76
2023/02/04 04:35:01;;;;;;;33.35;4.80;;;7.50;99.90;;;;;;5132330;27;20180;-77
2023/02/04 04:37:27;;;;;;;34.40;4.07;;;7.50;99.90;;;;;;5115495;27;20189;-77
2023/02/04 04:39:52;;;;;;;27.92;4.00;;;7.50;99.90;;;;;;5123704;27;20238;-77
2023/02/04 04:42:18;;;;;;;37.85;4.82;;;7.50;99.90;;;;;;5114874;27;20189;-78
2023/02/04 04:44:44;;;;;;;29.48;4.68;;;7.50;99.90;;;;;;5128469;27;20635;-77
2023/02/04 04:47:10;;;;;;;38.25;4.97;;;7.50;99.90;;;;;;5132033;27;20188;-77
2023/02/04 04:49:36;;;;;;;25.15;3.90;;;7.40;99.90;;;;;;5124089;27;20181;-77
2023/02/04 04:52:01;;;;;;;31.83;4.22;;;7.40;99.90;;;;;;5124334;27;20193;-76
2023/02/04 04:54:27;;;;;;;40.83;4.63;;;7.40;99.90;;;;;;5114377;28;20184;-78
2023/02/04 04:56:55;;;;;;;40.72;4.15;;;7.40;99.90;;;;;;5119686;28;20192;-77
2023/02/04 04:59:21;;;;;;;34.42;5.03;;;7.40;99.90;;;;;;5131306;27;20478;-77
2023/02/04 05:01:46;;;;;;;28.80;3.85;;;7.40;99.90;;;;;;5131507;27;20666;-77
2023/02/04 05:04:12;;;;;;;32.33;4.00;;;7.40;99.90;;;;;;5130437;27;20177;-77
2023/02/04 05:06:38;;;;;;;34.88;4.10;;;7.40;99.90;;;;;;5112709;28;20216;-77
2023/02/04 05:09:03;;;;;;;28.42;3.60;;;7.40;99.90;;;;;;5114987;28;20636;-77
2023/02/04 05:11:29;;;;;;;29.35;4.15;;;7.30;99.90;;;;;;5129355;27;20213;-78
2023/02/04 05:13:55;;;;;;;33.03;4.22;;;7.30;99.90;;;;;;5115427;28;20542;-77
2023/02/04 05:16:21;;;;;;;27.95;3.60;;;7.30;99.90;;;;;;5131331;27;21246;-78
2023/02/04 05:18:47;;;;;;;42.72;5.32;;;7.30;99.90;;;;;;5134127;27;20187;-77
2023/02/04 05:21:13;;;;;;;24.55;3.88;;;7.30;99.90;;;;;;5122324;27;20196;-77
2023/02/04 05:23:39;;;;;;;39.97;4.20;;;7.30;99.90;;;;;;5127310;27;20544;-79
2023/02/04 05:26:05;;;;;;;32.60;4.07;;;7.20;99.90;;;;;;5135211;27;20260;-77
2023/02/04 05:28:31;;;;;;;26.85;3.75;;;7.20;99.90;;;;;;5134928;27;20173;-77
2023/02/04 05:30:56;;;;;;;26.02;3.40;;;7.30;99.90;;;;;;5134200;27;20640;-77
2023/02/04 05:33:22;;;;;;;23.95;3.53;;;7.20;99.90;;;;;;5133547;27;20172;-77
2023/02/04 05:35:48;;;;;;;27.95;3.70;;;7.20;99.90;;;;;;5124080;27;20185;-77
2023/02/04 05:38:14;;;;;;;28.08;3.95;;;7.20;99.90;;;;;;5121021;27;20195;-77
2023/02/04 05:40:39;;;;;;;31.60;4.55;;;7.20;99.90;;;;;;5130548;27;20599;-78
2023/02/04 05:43:05;;;;;;;24.80;3.50;;;7.20;99.90;;;;;;5125855;27;20230;-78
2023/02/04 05:45:31;;;;;;;24.63;3.47;;;7.20;99.90;;;;;;5129835;27;20209;-78
2023/02/04 05:47:56;;;;;;;33.55;4.15;;;7.20;99.90;;;;;;5135883;27;20565;-80
2023/02/04 05:50:22;;;;;;;19.67;3.30;;;7.20;99.90;;;;;;5117070;27;20284;-78
2023/02/04 05:52:48;;;;;;;29.73;3.65;;;7.20;99.90;;;;;;5121702;27;20539;-76
2023/02/04 05:55:13;;;;;;;24.67;3.55;;;7.10;99.90;;;;;;5110820;27;20201;-76
2023/02/04 05:57:39;;;;;;;26.90;3.78;;;7.10;99.90;;;;;;5120659;27;20581;-76
2023/02/04 06:00:06;;;;;;;22.80;3.25;;;7.10;99.90;;;;;;5127019;27;20188;-77
2023/02/04 06:02:38;;;;;;;27.70;3.22;;;7.10;99.90;;;;;;5122237;27;20173;-77
2023/02/04 06:05:04;;;;;;;21.92;3.40;;;7.10;99.90;;;;;;5115878;27;20211;-76
2023/02/04 06:07:30;;;;;;;26.27;3.55;;;7.10;99.90;;;;;;5134124;27;20180;-81
2023/02/04 06:09:56;;;;;;;28.20;3.67;;;7.10;99.90;;;;;;5120140;27;20325;-76
2023/02/04 06:12:21;;;;;;;31.40;3.65;;;7.10;99.90;;;;;;5118605;27;20633;-76
2023/02/04 06:14:47;;;;;;;22.67;3.47;;;7.10;99.90;;;;;;5115829;27;20189;-76
2023/02/04 06:17:13;;;;;;;30.10;3.92;;;7.10;99.90;;;;;;5121310;27;20195;-79
2023/02/04 06:19:38;;;;;;;21.20;3.60;;;7.10;99.90;;;;;;5128682;27;20185;-76
2023/02/04 06:22:04;;;;;;;26.13;3.45;;;7.00;99.90;;;;;;5120822;27;20859;-76
2023/02/04 06:24:30;;;;;;;25.15;3.38;;;7.00;99.90;;;;;;5130320;27;20191;-76
2023/02/04 06:26:55;;;;;;;29.08;3.97;;;7.00;99.90;;;;;;5131024;27;20212;-76
2023/02/04 06:29:21;;;;;;;29.35;3.50;;;7.00;99.90;;;;;;5117044;27;20182;-76
2023/02/04 06:31:48;;;;;;;23.63;3.58;;;7.00;99.90;;;;;;5123769;27;20218;-77
2023/02/04 06:34:14;;;;;;;32.60;3.50;;;7.00;99.90;;;;;;5122909;27;20189;-83
2023/02/04 06:36:40;;;;;;;24.33;3.20;;;7.00;99.90;;;;;;5123589;27;20670;-82
2023/02/04 06:39:05;;;;;;;24.40;3.60;;;6.90;99.90;;;;;;5121403;27;20263;-76
2023/02/04 06:41:31;;;;;;;26.05;3.45;;;6.90;99.90;;;;;;5135096;27;20211;-76
2023/02/04 06:43:57;;;;;;;23.15;3.08;;;6.90;99.90;;;;;;5123120;27;20272;-76
2023/02/04 06:46:23;;;;;;;24.23;3.20;;;6.90;99.90;;;;;;5113746;27;20539;-76
2023/02/04 06:48:48;;;;;;;23.73;3.50;;;6.90;99.90;;;;;;5127407;27;20203;-75
2023/02/04 06:51:14;;;;;;;22.42;3.47;;;6.90;99.90;;;;;;5131554;27;20343;-76
2023/02/04 06:53:42;;;;;;;27.38;4.20;;;6.90;99.90;;;;;;5119663;27;20185;-76
2023/02/04 06:56:09;;;;;;;29.38;3.38;;;6.90;99.90;;;;;;5120514;27;20188;-82
2023/02/04 06:58:35;;;;;;;23.30;3.20;;;6.90;99.90;;;;;;5125166;27;20219;-76
2023/02/04 07:01:01;;;;;;;25.48;3.58;;;6.90;99.90;;;;;;5127304;27;20218;-76
2023/02/04 07:03:27;;;;;;;20.33;3.33;;;6.90;99.90;;;;;;5125291;27;20238;-77
2023/02/04 07:05:53;;;;;;;22.17;3.10;;;6.80;99.90;;;;;;5116623;27;20216;-76
2023/02/04 07:08:20;;;;;;;29.88;4.07;;;6.80;99.90;;;;;;5116247;27;20194;-84
2023/02/04 07:10:47;;;;;;;19.45;3.00;;;6.80;99.90;;;;;;5119962;27;20176;-75
2023/02/04 07:13:13;;;;;;;23.13;3.17;;;6.80;99.90;;;;;;5119724;27;20234;-77
2023/02/04 07:15:38;;;;;;;20.52;3.92;;;6.80;99.90;;;;;;5135388;27;20176;-78
2023/02/04 07:18:04;;;;;;;19.88;3.40;;;6.80;99.90;;;;;;5130551;27;20676;-75
2023/02/04 07:20:30;;;;;;;20.55;2.90;;;6.70;99.90;;;;;;5114800;27;20654;-77
2023/02/04 07:22:55;;;;;;;19.55;3.10;;;6.70;99.90;;;;;;5114299;27;20695;-83
2023/02/04 07:25:22;;;;;;;22.95;3.13;;;6.70;99.90;;;;;;5119773;27;20320;-76
2023/02/04 07:27:48;;;;;;;19.83;2.90;;;6.60;99.90;;;;;;5123212;27;20546;-79
2023/02/04 07:30:13;;;;;;;15.15;2.83;;;6.50;99.90;;;;;;5116631;27;20188;-77
2023/02/04 07:32:39;;;;;;;24.40;3.10;;;6.60;99.90;;;;;;5130540;27;20215;-76
2023/02/04 07:35:05;;;;;;;13.70;2.70;;;6.50;99.90;;;;;;5115641;27;20271;-76
2023/02/04 07:37:31;;;;;;;26.30;2.83;;;6.50;99.90;;;;;;5118736;27;20651;-76
2023/02/04 07:39:57;;;;;;;14.02;2.95;;;6.40;99.90;;;;;;5129029;27;20185;-76
2023/02/04 07:42:23;;;;;;;19.15;3.30;;;6.40;99.90;;;;;;5129628;27;20517;-77
2023/02/04 07:44:57;;;;;;;19.00;2.80;;;6.40;99.90;;;;;;5126332;27;20184;-77
2023/02/04 07:47:23;;;;;;;16.95;2.85;;;6.40;99.90;;;;;;5134926;27;20644;-77
2023/02/04 07:49:49;;;;;;;15.32;2.55;;;6.30;99.90;;;;;;5133589;27;20185;-76
2023/02/04 07:52:15;;;;;;;15.88;2.22;;;6.40;99.90;;;;;;5116619;27;20207;-76
2023/02/04 07:54:41;;;;;;;22.23;2.80;;;6.40;99.90;;;;;;5132603;27;20632;-80
2023/02/04 07:57:07;;;;;;;13.55;2.63;;;6.30;99.90;;;;;;5124735;27;20223;-76
2023/02/04 07:59:33;;;;;;;23.30;2.90;;;6.40;99.90;;;;;;5131297;27;20619;-76
2023/02/04 08:02:00;;;;;;;17.05;2.67;;;6.40;99.90;;;;;;5135188;27;20180;-76
2023/02/04 08:04:26;;;;;;;22.17;3.80;;;6.40;99.90;;;;;;5132784;27;20188;-76
2023/02/04 08:06:52;;;;;;;18.13;2.72;;;6.40;99.90;;;;;;5131113;27;20212;-76
2023/02/04 08:09:18;;;;;;;19.52;3.25;;;6.40;99.90;;;;;;5133140;27;20192;-76
2023/02/04 08:11:44;;;;;;;13.00;2.97;;;6.40;99.90;;;;;;5134616;27;20176;-77
2023/02/04 08:14:09;;;;;;;14.55;3.25;;;6.50;99.90;;;;;;5133405;27;20252;-77
2023/02/04 08:16:35;;;;;;;13.45;2.58;;;6.50;99.90;;;;;;5131299;27;20185;-76
2023/02/04 08:19:01;;;;;;;27.50;2.80;;;6.50;99.90;;;;;;5133059;27;20181;-76
2023/02/04 08:21:27;;;;;;;9.63;2.40;;;6.50;99.90;;;;;;5131505;27;20214;-77
2023/02/04 08:23:52;;;;;;;17.67;2.88;;;6.50;99.90;;;;;;5132949;27;20231;-77
2023/02/04 08:26:18;;;;;;;11.90;2.17;;;6.60;99.90;;;;;;5131841;27;20226;-83
2023/02/04 08:28:44;;;;;;;22.13;2.83;;;6.60;99.90;;;;;;5119330;27;20654;-79
2023/02/04 08:31:10;;;;;;;18.20;2.42;;;6.70;99.90;;;;;;5112025;28;20177;-76
2023/02/04 08:33:37;;;;;;;13.38;2.47;;;6.60;99.90;;;;;;5119067;27;21540;-77
2023/02/04 08:36:05;;;;;;;12.00;2.15;;;6.60;99.90;;;;;;5117673;27;20196;-77
2023/02/04 08:38:31;;;;;;;16.40;2.80;;;6.60;99.90;;;;;;5126758;27;20229;-77
2023/02/04 08:40:58;;;;;;;14.80;2.30;;;6.60;99.90;;;;;;5128106;27;20192;-77
2023/02/04 08:43:25;;;;;;;14.52;2.55;;;6.60;99.90;;;;;;5130950;27;20191;-77
2023/02/04 08:45:51;;;;;;;18.08;2.83;;;6.60;99.90;;;;;;5126450;27;20307;-80
2023/02/04 08:48:16;;;;;;;15.25;2.70;;;6.70;99.90;;;;;;5113169;27;20246;-77
2023/02/04 08:50:42;;;;;;;14.88;2.55;;;6.70;99.90;;;;;;5125290;27;20176;-75
2023/02/04 08:53:08;;;;;;;12.30;2.53;;;6.70;99.90;;;;;;5129283;27;20594;-77
2023/02/04 08:55:34;;;;;;;19.20;2.70;;;6.70;99.90;;;;;;5133673;27;20181;-77
2023/02/04 08:58:01;;;;;;;11.70;2.35;;;6.80;99.90;;;;;;5131101;27;20184;-78
2023/02/04 09:00:27;;;;;;;14.20;2.35;;;6.80;99.90;;;;;;5131775;27;20189;-77
2023/02/04 09:02:53;;;;;;;13.68;2.42;;;6.90;99.90;;;;;;5131515;27;20248;-76
2023/02/04 09:05:19;;;;;;;15.32;2.60;;;7.00;99.90;;;;;;5131949;27;20679;-76
2023/02/04 09:07:44;;;;;;;11.75;2.30;;;7.00;99.90;;;;;;5123272;27;20180;-77
2023/02/04 09:10:10;;;;;;;12.35;2.67;;;7.00;99.90;;;;;;5125169;28;20237;-77
2023/02/04 09:12:36;;;;;;;12.05;2.28;;;7.10;99.90;;;;;;5133004;28;20180;-77
2023/02/04 09:15:02;;;;;;;17.92;2.25;;;7.10;99.90;;;;;;5115220;27;20219;-77
2023/02/04 09:17:27;;;;;;;16.50;2.55;;;7.10;99.90;;;;;;5122283;28;20666;-77
2023/02/04 09:19:53;;;;;;;16.00;2.63;;;7.10;99.90;;;;;;5132255;28;20916;-76
2023/02/04 09:22:19;;;;;;;16.55;2.78;;;7.10;99.90;;;;;;5117339;27;20181;-75
2023/02/04 09:24:45;;;;;;;14.35;2.55;;;7.20;99.90;;;;;;5114735;28;20692;-81
2023/02/04 09:27:11;;;;;;;18.17;2.42;;;7.30;99.90;;;;;;5120149;28;20197;-75
2023/02/04 09:29:37;;;;;;;20.17;2.20;;;7.40;99.90;;;;;;5130042;28;20268;-76
2023/02/04 09:32:02;;;;;;;14.75;2.83;;;7.70;99.90;;;;;;5132057;28;20626;-75
2023/02/04 09:34:28;;;;;;;14.05;3.08;;;7.90;99.90;;;;;;5121499;28;20216;-76
2023/02/04 09:36:54;;;;;;;12.07;2.40;;;8.10;99.90;;;;;;5123023;28;20193;-77
2023/02/04 09:39:20;;;;;;;11.07;2.63;;;8.40;99.90;;;;;;5118781;28;20329;-74
2023/02/04 09:41:45;;;;;;;10.98;3.05;;;8.70;99.90;;;;;;5125968;28;20304;-78
2023/02/04 09:44:17;;;;;;;10.15;3.10;;;8.80;99.90;;;;;;5119397;28;20311;-77
2023/02/04 09:46:53;;;;;;;14.50;3.45;;;9.00;99.90;;;;;;5101633;28;20283;-75
2023/02/04 09:49:18;;;;;;;26.17;2.90;;;9.20;99.90;;;;;;5123509;28;20188;-76
2023/02/04 09:51:46;;;;;;;15.13;2.42;;;9.20;99.90;;;;;;5120497;27;20215;-77
2023/02/04 09:54:19;;;;;;;11.65;2.30;;;9.10;99.90;;;;;;5115459;28;20209;-80
2023/02/04 09:56:45;;;;;;;11.63;2.40;;;8.90;99.90;;;;;;5121568;28;20255;-76
2023/02/04 09:59:21;;;;;;;11.43;2.25;;;8.80;99.90;;;;;;5122269;27;20186;-78
2023/02/04 10:01:58;;;;;;;15.15;2.55;;;8.70;99.90;;;;;;5112639;27;20181;-79
2023/02/04 10:04:24;;;;;;;16.15;3.33;;;8.50;99.90;;;;;;5125863;27;20267;-77
2023/02/04 10:06:50;;;;;;;9.32;2.85;;;8.40;99.90;;;;;;5131076;27;20346;-77
2023/02/04 10:09:17;;;;;;;10.35;3.08;;;8.30;99.90;;;;;;5135458;27;20620;-78
2023/02/04 10:11:45;;;;;;;13.35;2.90;;;8.20;99.90;;;;;;5137017;27;20264;-76
2023/02/04 10:14:15;;;;;;;9.38;2.58;;;8.20;99.90;;;;;;5118591;27;20176;-77
2023/02/04 10:16:42;;;;;;;13.18;2.80;;;8.20;99.90;;;;;;5120590;27;20181;-77
2023/02/04 10:19:15;;;;;;;14.48;2.88;;;8.30;99.90;;;;;;5124943;27;20177;-75
2023/02/04 10:21:43;;;;;;;9.73;3.15;;;8.30;99.90;;;;;;5134055;27;20188;-75
2023/02/04 10:24:17;;;;;;;10.77;2.83;;;8.60;99.90;;;;;;5129347;27;20289;-77
2023/02/04 10:26:43;;;;;;;16.10;3.47;;;9.00;99.90;;;;;;5119516;27;20291;-78
2023/02/04 10:29:24;;;;;;;11.63;2.92;;;9.40;99.90;;;;;;5126176;27;20271;-77
2023/02/04 10:31:51;;;;;;;8.45;2.13;;;9.80;99.90;;;;;;5135454;27;20188;-78
2023/02/04 10:34:38;;;;;;;10.50;2.30;;;10.00;99.90;;;;;;5128225;27;20179;-78
2023/02/04 10:37:21;;;;;;;5.93;2.13;;;10.20;99.90;;;;;;5130513;27;20186;-78
2023/02/04 10:39:50;;;;;;;13.02;2.78;;;10.60;99.90;;;;;;5132607;27;20172;-79
2023/02/04 10:42:28;;;;;;;14.88;2.90;;;11.00;99.90;;;;;;5136265;27;20206;-81
2023/02/04 10:44:54;;;;;;;13.50;2.80;;;11.40;99.90;;;;;;5117562;27;20655;-77
2023/02/04 10:47:29;;;;;;;10.75;2.92;;;12.00;99.90;;;;;;5117618;27;20227;-77
2023/02/04 10:49:58;;;;;;;11.50;2.80;;;13.20;99.90;;;;;;5132592;27;20305;-78
2023/02/04 10:52:32;;;;;;;13.45;2.80;;;14.40;99.90;;;;;;5117693;27;20406;-78
2023/02/04 10:54:59;;;;;;;10.13;2.35;;;14.60;99.90;;;;;;5131565;27;20190;-78
2023/02/04 10:57:30;;;;;;;15.85;2.80;;;14.60;99.90;;;;;;5135314;27;20171;-77
2023/02/04 10:59:59;;;;;;;8.85;2.30;;;14.60;99.90;;;;;;5131240;27;20654;-80
2023/02/04 11:02:42;;;;;;;10.20;2.67;;;14.70;99.90;;;;;;5135355;27;20176;-78
2023/02/04 11:05:17;;;;;;;6.47;2.38;;;15.10;99.90;;;;;;5125502;27;20261;-80
2023/02/04 11:07:45;;;;;;;16.77;2.78;;;15.10;99.90;;;;;;5119156;27;20651;-79
2023/02/04 11:10:19;;;;;;;11.93;2.80;;;15.10;99.90;;;;;;5132054;27;20710;-78
2023/02/04 11:13:18;;;;;;;9.60;2.95;;;15.70;99.90;;;;;;5129587;27;20894;-78
2023/02/04 11:15:53;;;;;;;10.45;2.45;;;16.30;99.40;;;;;;5130042;27;20186;-78
2023/02/04 11:18:19;;;;;;;10.55;2.83;;;16.40;97.60;;;;;;5134040;27;20213;-80
2023/02/04 11:20:46;;;;;;;9.90;2.40;;;16.20;97.00;;;;;;5135350;27;20267;-77
2023/02/04 11:23:31;;;;;;;9.50;2.60;;;16.10;96.40;;;;;;5130677;27;20224;-82
2023/02/04 11:26:03;;;;;;;11.05;2.45;;;15.70;95.80;;;;;;5119617;27;20209;-78
2023/02/04 11:28:39;;;;;;;6.50;2.30;;;15.20;95.50;;;;;;5117942;27;20292;-79
2023/02/04 11:31:24;;;;;;;9.05;2.40;;;14.90;95.60;;;;;;5134448;27;20175;-79
2023/02/04 11:34:02;;;;;;;11.23;2.53;;;14.50;95.80;;;;;;5126836;27;20263;-81
2023/02/04 11:36:28;;;;;;;8.63;2.65;;;14.60;96.10;;;;;;5120516;27;20196;-77
2023/02/04 11:38:54;;;;;;;6.47;2.40;;;15.60;95.30;;;;;;5121147;27;20185;-77
2023/02/04 11:41:29;;;;;;;10.93;2.03;;;16.70;93.40;;;;;;5135860;27;20173;-88
2023/02/04 11:43:56;;;;;;;8.07;2.10;;;17.90;90.60;;;;;;5120393;27;20259;-86
2023/02/04 11:46:29;;;;;;;8.05;2.00;;;19.00;85.10;;;;;;5110018;27;20250;-75
2023/02/04 11:48:56;;;;;;;7.25;2.42;;;20.00;78.10;;;;;;5120478;27;20181;-79
2023/02/04 11:51:30;;;;;;;10.35;2.28;;;19.50;77.00;;;;;;5123591;27;20245;-79
2023/02/04 11:53:56;;;;;;;10.40;2.28;;;18.40;75.10;;;;;;5123187;27;20172;-77
2023/02/04 11:56:22;;;;;;;4.70;1.60;;;17.40;79.80;;;;;;5121858;27;20184;-77
2023/02/04 11:58:49;;;;;;;4.13;1.52;;;16.50;83.20;;;;;;5121859;27;20217;-78
2023/02/04 12:01:19;;;;;;;5.60;1.65;;;15.70;83.80;;;;;;5126132;27;20181;-78
2023/02/04 12:03:48;;;;;;;4.63;1.80;;;14.90;85.60;;;;;;5129073;27;20233;-77
2023/02/04 12:06:26;;;;;;;5.55;1.42;;;14.40;88.90;;;;;;5125780;27;20209;-77
2023/02/04 12:08:51;;;;;;;6.70;1.83;;;14.00;90.10;;;;;;5126025;27;20184;-79
2023/02/04 12:11:26;;;;;;;6.43;1.90;;;13.70;90.40;;;;;;5113954;27;20243;-78
2023/02/04 12:13:54;;;;;;;5.65;1.80;;;13.40;91.30;;;;;;5114410;27;20639;-79
2023/02/04 12:16:19;;;;;;;6.00;1.92;;;13.20;92.10;;;;;;5113612;27;20632;-78
2023/02/04 12:18:45;;;;;;;4.82;1.65;;;12.90;91.80;;;;;;5121394;27;20212;-78
2023/02/04 12:21:13;;;;;;;6.13;1.90;;;12.70;92.20;;;;;;5133276;27;20181;-78
2023/02/04 12:23:41;;;;;;;8.27;1.90;;;12.40;92.80;;;;;;5132748;27;20255;-79
2023/02/04 12:26:07;;;;;;;6.63;2.13;;;12.20;93.60;;;;;;5131603;27;20684;-78
2023/02/04 12:28:33;;;;;;;9.82;1.90;;;12.10;93.90;;;;;;5132480;27;20236;-78
2023/02/04 12:30:59;;;;;;;4.60;1.90;;;12.00;94.30;;;;;;5121073;27;20318;-79
2023/02/04 12:33:25;;;;;;;4.18;1.80;;;11.90;94.20;;;;;;5121100;27;20275;-78
2023/02/04 12:35:51;;;;;;;8.15;2.13;;;11.80;94.50;;;;;;5122813;27;20268;-78
2023/02/04 12:38:17;;;;;;;6.53;1.92;;;11.90;94.90;;;;;;5127911;27;20181;-78
2023/02/04 12:40:43;;;;;;;7.10;1.98;;;11.90;94.80;;;;;;5131318;27;20191;-78
2023/02/04 12:43:09;;;;;;;4.50;1.67;;;12.00;94.70;;;;;;5130972;27;20209;-78
2023/02/04 12:45:36;;;;;;;8.85;2.00;;;12.00;94.50;;;;;;5133293;27;20208;-83